sensor_id;sensor_type;location;lat;lon;timestamp;temperature;humidity
39931;DHT22;26635;-35.248;149.138;2023-08-08T00:00:39;10.20;86.20
39931;DHT22;26635;-35.248;149.138;2023-08-08T00:03:10;10.30;86.90
39931;DHT22;26635;-35.248;149.138;2023-08-08T00:05:41;10.40;86.00
39931;DHT22;26635;-35.248;149.138;2023-08-08T00:08:12;10.40;85.70
39931;DHT22;26635;-35.248;149.138;2023-08-08T00:10:45;10.60;86.30
39931;DHT22;26635;-35.248;149.138;2023-08-08T00:13:16;10.60;84.60
39931;DHT22;26635;-35.248;149.138;2023-08-08T00:15:48;10.70;85.50
39931;DHT22;26635;-35.248;149.138;2023-08-08T00:18:21;10.70;85.40
39931;DHT22;26635;-35.248;149.138;2023-08-08T00:20:52;10.80;84.80
39931;DHT22;26635;-35.248;149.138;2023-08-08T00:23:23;10.90;83.80
39931;DHT22;26635;-35.248;149.138;2023-08-08T00:25:56;11.00;83.70
39931;DHT22;26635;-35.248;149.138;2023-08-08T00:28:28;11.10;84.00
39931;DHT22;26635;-35.248;149.138;2023-08-08T00:31:00;11.20;83.50
39931;DHT22;26635;-35.248;149.138;2023-08-08T00:33:31;11.30;83.70
39931;DHT22;26635;-35.248;149.138;2023-08-08T00:36:02;11.40;83.80
39931;DHT22;26635;-35.248;149.138;2023-08-08T00:38:34;11.50;82.60
39931;DHT22;26635;-35.248;149.138;2023-08-08T00:41:05;11.60;82.50
39931;DHT22;26635;-35.248;149.138;2023-08-08T00:43:36;11.70;83.10
39931;DHT22;26635;-35.248;149.138;2023-08-08T00:46:09;11.70;82.30
39931;DHT22;26635;-35.248;149.138;2023-08-08T00:48:40;11.80;81.50
39931;DHT22;26635;-35.248;149.138;2023-08-08T00:51:11;11.80;81.70
39931;DHT22;26635;-35.248;149.138;2023-08-08T00:53:42;11.90;80.90
39931;DHT22;26635;-35.248;149.138;2023-08-08T00:56:14;11.90;81.40
39931;DHT22;26635;-35.248;149.138;2023-08-08T00:58:46;12.00;81.30
39931;DHT22;26635;-35.248;149.138;2023-08-08T01:01:20;12.10;80.20
39931;DHT22;26635;-35.248;149.138;2023-08-08T01:03:53;12.20;80.70
39931;DHT22;26635;-35.248;149.138;2023-08-08T01:06:34;12.30;80.00
39931;DHT22;26635;-35.248;149.138;2023-08-08T01:09:21;12.40;79.90
39931;DHT22;26635;-35.248;149.138;2023-08-08T01:11:57;12.50;79.40
39931;DHT22;26635;-35.248;149.138;2023-08-08T01:14:30;12.50;79.90
39931;DHT22;26635;-35.248;149.138;2023-08-08T01:17:03;12.60;79.50
39931;DHT22;26635;-35.248;149.138;2023-08-08T01:19:35;12.70;78.90
39931;DHT22;26635;-35.248;149.138;2023-08-08T01:22:09;12.70;79.20
39931;DHT22;26635;-35.248;149.138;2023-08-08T01:24:46;12.90;79.10
39931;DHT22;26635;-35.248;149.138;2023-08-08T01:27:17;13.00;78.50
39931;DHT22;26635;-35.248;149.138;2023-08-08T01:29:48;13.10;77.60
39931;DHT22;26635;-35.248;149.138;2023-08-08T01:32:19;13.10;77.80
39931;DHT22;26635;-35.248;149.138;2023-08-08T01:34:50;13.10;77.20
39931;DHT22;26635;-35.248;149.138;2023-08-08T01:37:32;13.10;77.10
39931;DHT22;26635;-35.248;149.138;2023-08-08T01:40:07;13.10;76.40
39931;DHT22;26635;-35.248;149.138;2023-08-08T01:42:39;13.10;76.60
39931;DHT22;26635;-35.248;149.138;2023-08-08T01:45:11;13.20;77.50
39931;DHT22;26635;-35.248;149.138;2023-08-08T01:47:49;13.20;76.90
39931;DHT22;26635;-35.248;149.138;2023-08-08T01:50:19;13.20;76.00
39931;DHT22;26635;-35.248;149.138;2023-08-08T01:52:51;13.30;75.00
39931;DHT22;26635;-35.248;149.138;2023-08-08T01:55:22;13.30;76.00
39931;DHT22;26635;-35.248;149.138;2023-08-08T01:57:53;13.40;76.10
39931;DHT22;26635;-35.248;149.138;2023-08-08T02:00:24;13.50;75.80
39931;DHT22;26635;-35.248;149.138;2023-08-08T02:02:55;13.60;75.30
39931;DHT22;26635;-35.248;149.138;2023-08-08T02:05:26;13.70;74.30
39931;DHT22;26635;-35.248;149.138;2023-08-08T02:07:57;13.80;76.10
39931;DHT22;26635;-35.248;149.138;2023-08-08T02:10:28;13.90;76.00
39931;DHT22;26635;-35.248;149.138;2023-08-08T02:13:01;14.00;74.80
39931;DHT22;26635;-35.248;149.138;2023-08-08T02:15:33;14.10;74.50
39931;DHT22;26635;-35.248;149.138;2023-08-08T02:18:04;14.30;74.00
39931;DHT22;26635;-35.248;149.138;2023-08-08T02:20:36;14.30;74.00
39931;DHT22;26635;-35.248;149.138;2023-08-08T02:23:07;14.50;73.80
39931;DHT22;26635;-35.248;149.138;2023-08-08T02:25:38;14.50;73.20
39931;DHT22;26635;-35.248;149.138;2023-08-08T02:28:10;14.60;73.10
39931;DHT22;26635;-35.248;149.138;2023-08-08T02:30:41;14.70;73.10
39931;DHT22;26635;-35.248;149.138;2023-08-08T02:33:11;14.80;72.20
39931;DHT22;26635;-35.248;149.138;2023-08-08T02:35:42;14.80;72.30
39931;DHT22;26635;-35.248;149.138;2023-08-08T02:38:14;14.80;70.30
39931;DHT22;26635;-35.248;149.138;2023-08-08T02:40:45;14.80;70.70
39931;DHT22;26635;-35.248;149.138;2023-08-08T02:43:15;14.80;70.30
39931;DHT22;26635;-35.248;149.138;2023-08-08T02:45:47;14.80;70.80
39931;DHT22;26635;-35.248;149.138;2023-08-08T02:48:18;14.90;71.60
39931;DHT22;26635;-35.248;149.138;2023-08-08T02:50:49;14.90;70.90
39931;DHT22;26635;-35.248;149.138;2023-08-08T02:53:20;14.90;71.10
39931;DHT22;26635;-35.248;149.138;2023-08-08T02:55:52;15.00;71.50
39931;DHT22;26635;-35.248;149.138;2023-08-08T02:58:24;15.10;71.40
39931;DHT22;26635;-35.248;149.138;2023-08-08T03:00:56;15.10;71.20
39931;DHT22;26635;-35.248;149.138;2023-08-08T03:03:27;15.10;71.20
39931;DHT22;26635;-35.248;149.138;2023-08-08T03:05:58;15.20;71.30
39931;DHT22;26635;-35.248;149.138;2023-08-08T03:08:28;15.20;71.10
39931;DHT22;26635;-35.248;149.138;2023-08-08T03:10:59;15.20;69.20
39931;DHT22;26635;-35.248;149.138;2023-08-08T03:13:30;15.20;71.00
39931;DHT22;26635;-35.248;149.138;2023-08-08T03:16:01;15.30;70.80
39931;DHT22;26635;-35.248;149.138;2023-08-08T03:18:32;15.20;69.10
39931;DHT22;26635;-35.248;149.138;2023-08-08T03:21:03;15.10;70.40
39931;DHT22;26635;-35.248;149.138;2023-08-08T03:23:35;15.10;69.80
39931;DHT22;26635;-35.248;149.138;2023-08-08T03:26:06;15.10;70.20
39931;DHT22;26635;-35.248;149.138;2023-08-08T03:28:38;15.20;69.40
39931;DHT22;26635;-35.248;149.138;2023-08-08T03:31:09;15.20;68.60
39931;DHT22;26635;-35.248;149.138;2023-08-08T03:33:40;15.20;67.70
39931;DHT22;26635;-35.248;149.138;2023-08-08T03:36:11;15.20;69.10
39931;DHT22;26635;-35.248;149.138;2023-08-08T03:38:42;15.30;68.90
39931;DHT22;26635;-35.248;149.138;2023-08-08T03:41:15;15.40;67.80
39931;DHT22;26635;-35.248;149.138;2023-08-08T03:43:46;15.30;68.00
39931;DHT22;26635;-35.248;149.138;2023-08-08T03:46:16;15.30;69.10
39931;DHT22;26635;-35.248;149.138;2023-08-08T03:48:47;15.40;69.10
39931;DHT22;26635;-35.248;149.138;2023-08-08T03:51:21;15.40;67.20
39931;DHT22;26635;-35.248;149.138;2023-08-08T03:53:51;15.40;67.80
39931;DHT22;26635;-35.248;149.138;2023-08-08T03:56:21;15.50;67.60
39931;DHT22;26635;-35.248;149.138;2023-08-08T03:58:52;15.50;67.60
39931;DHT22;26635;-35.248;149.138;2023-08-08T04:01:23;15.60;67.00
39931;DHT22;26635;-35.248;149.138;2023-08-08T04:03:54;15.60;67.80
39931;DHT22;26635;-35.248;149.138;2023-08-08T04:06:24;15.60;67.20
39931;DHT22;26635;-35.248;149.138;2023-08-08T04:08:54;15.60;66.40
39931;DHT22;26635;-35.248;149.138;2023-08-08T04:11:25;15.50;67.00
39931;DHT22;26635;-35.248;149.138;2023-08-08T04:13:55;15.50;67.10
39931;DHT22;26635;-35.248;149.138;2023-08-08T04:16:26;15.50;67.40
39931;DHT22;26635;-35.248;149.138;2023-08-08T04:18:56;15.60;65.60
39931;DHT22;26635;-35.248;149.138;2023-08-08T04:21:29;15.60;67.40
39931;DHT22;26635;-35.248;149.138;2023-08-08T04:24:04;15.70;66.50
39931;DHT22;26635;-35.248;149.138;2023-08-08T04:26:36;15.70;66.10
39931;DHT22;26635;-35.248;149.138;2023-08-08T04:29:07;15.70;66.00
39931;DHT22;26635;-35.248;149.138;2023-08-08T04:31:39;15.70;66.60
39931;DHT22;26635;-35.248;149.138;2023-08-08T04:34:10;15.70;66.60
39931;DHT22;26635;-35.248;149.138;2023-08-08T04:36:44;15.70;66.30
39931;DHT22;26635;-35.248;149.138;2023-08-08T04:39:15;15.70;66.00
39931;DHT22;26635;-35.248;149.138;2023-08-08T04:41:45;15.70;67.10
39931;DHT22;26635;-35.248;149.138;2023-08-08T04:44:17;15.70;65.70
39931;DHT22;26635;-35.248;149.138;2023-08-08T04:46:48;15.70;66.60
39931;DHT22;26635;-35.248;149.138;2023-08-08T04:49:19;15.70;66.50
39931;DHT22;26635;-35.248;149.138;2023-08-08T04:51:51;15.70;66.70
39931;DHT22;26635;-35.248;149.138;2023-08-08T04:54:22;15.70;66.30
39931;DHT22;26635;-35.248;149.138;2023-08-08T04:56:53;15.70;65.90
39931;DHT22;26635;-35.248;149.138;2023-08-08T04:59:24;15.60;66.10
39931;DHT22;26635;-35.248;149.138;2023-08-08T05:01:56;15.60;67.20
39931;DHT22;26635;-35.248;149.138;2023-08-08T05:04:27;15.60;67.10
39931;DHT22;26635;-35.248;149.138;2023-08-08T05:07:00;15.60;68.70
39931;DHT22;26635;-35.248;149.138;2023-08-08T05:09:31;15.50;68.60
39931;DHT22;26635;-35.248;149.138;2023-08-08T05:12:02;15.50;68.30
39931;DHT22;26635;-35.248;149.138;2023-08-08T05:14:33;15.50;68.10
39931;DHT22;26635;-35.248;149.138;2023-08-08T05:17:05;15.40;67.80
39931;DHT22;26635;-35.248;149.138;2023-08-08T05:19:35;15.40;67.90
39931;DHT22;26635;-35.248;149.138;2023-08-08T05:22:06;15.40;68.10
39931;DHT22;26635;-35.248;149.138;2023-08-08T05:24:38;15.40;67.90
39931;DHT22;26635;-35.248;149.138;2023-08-08T05:27:10;15.30;68.10
39931;DHT22;26635;-35.248;149.138;2023-08-08T05:29:41;15.30;67.80
39931;DHT22;26635;-35.248;149.138;2023-08-08T05:32:13;15.30;68.10
39931;DHT22;26635;-35.248;149.138;2023-08-08T05:34:43;15.30;68.00
39931;DHT22;26635;-35.248;149.138;2023-08-08T05:37:14;15.30;67.60
39931;DHT22;26635;-35.248;149.138;2023-08-08T05:39:45;15.20;67.00
39931;DHT22;26635;-35.248;149.138;2023-08-08T05:42:15;15.20;68.50
39931;DHT22;26635;-35.248;149.138;2023-08-08T05:44:47;15.20;69.30
39931;DHT22;26635;-35.248;149.138;2023-08-08T05:47:18;15.10;69.30
39931;DHT22;26635;-35.248;149.138;2023-08-08T05:49:50;15.10;69.10
39931;DHT22;26635;-35.248;149.138;2023-08-08T05:52:21;15.10;69.30
39931;DHT22;26635;-35.248;149.138;2023-08-08T05:54:52;15.10;69.60
39931;DHT22;26635;-35.248;149.138;2023-08-08T05:57:23;15.10;69.70
39931;DHT22;26635;-35.248;149.138;2023-08-08T05:59:54;15.10;69.80
39931;DHT22;26635;-35.248;149.138;2023-08-08T06:02:30;15.00;69.40
39931;DHT22;26635;-35.248;149.138;2023-08-08T06:05:01;15.00;69.10
39931;DHT22;26635;-35.248;149.138;2023-08-08T06:07:31;15.00;67.80
39931;DHT22;26635;-35.248;149.138;2023-08-08T06:10:04;15.00;69.10
39931;DHT22;26635;-35.248;149.138;2023-08-08T06:12:35;14.90;69.40
39931;DHT22;26635;-35.248;149.138;2023-08-08T06:15:06;14.80;69.80
39931;DHT22;26635;-35.248;149.138;2023-08-08T06:17:38;14.70;68.90
39931;DHT22;26635;-35.248;149.138;2023-08-08T06:20:10;14.70;68.90
39931;DHT22;26635;-35.248;149.138;2023-08-08T06:22:44;14.60;69.10
39931;DHT22;26635;-35.248;149.138;2023-08-08T06:25:20;14.50;68.80
39931;DHT22;26635;-35.248;149.138;2023-08-08T06:27:51;14.40;69.40
39931;DHT22;26635;-35.248;149.138;2023-08-08T06:30:22;14.30;69.80
39931;DHT22;26635;-35.248;149.138;2023-08-08T06:32:53;14.30;69.10
39931;DHT22;26635;-35.248;149.138;2023-08-08T06:35:24;14.20;69.40
39931;DHT22;26635;-35.248;149.138;2023-08-08T06:37:55;14.10;69.10
39931;DHT22;26635;-35.248;149.138;2023-08-08T06:40:27;14.00;70.00
39931;DHT22;26635;-35.248;149.138;2023-08-08T06:42:57;13.90;70.30
39931;DHT22;26635;-35.248;149.138;2023-08-08T06:45:28;13.90;70.80
39931;DHT22;26635;-35.248;149.138;2023-08-08T06:48:00;13.80;71.00
39931;DHT22;26635;-35.248;149.138;2023-08-08T06:50:31;13.70;71.30
39931;DHT22;26635;-35.248;149.138;2023-08-08T06:53:02;13.60;71.80
39931;DHT22;26635;-35.248;149.138;2023-08-08T06:55:33;13.50;72.00
39931;DHT22;26635;-35.248;149.138;2023-08-08T06:58:04;13.50;72.40
39931;DHT22;26635;-35.248;149.138;2023-08-08T07:00:36;13.40;72.10
39931;DHT22;26635;-35.248;149.138;2023-08-08T07:03:06;13.40;72.50
39931;DHT22;26635;-35.248;149.138;2023-08-08T07:05:37;13.30;72.90
39931;DHT22;26635;-35.248;149.138;2023-08-08T07:08:09;13.20;72.50
39931;DHT22;26635;-35.248;149.138;2023-08-08T07:10:41;13.10;72.90
39931;DHT22;26635;-35.248;149.138;2023-08-08T07:13:13;13.10;73.30
39931;DHT22;26635;-35.248;149.138;2023-08-08T07:15:45;13.00;73.50
39931;DHT22;26635;-35.248;149.138;2023-08-08T07:18:16;12.80;73.30
39931;DHT22;26635;-35.248;149.138;2023-08-08T07:20:47;12.70;73.90
39931;DHT22;26635;-35.248;149.138;2023-08-08T07:23:20;12.60;74.00
39931;DHT22;26635;-35.248;149.138;2023-08-08T07:25:50;12.50;75.30
39931;DHT22;26635;-35.248;149.138;2023-08-08T07:28:22;12.40;74.00
39931;DHT22;26635;-35.248;149.138;2023-08-08T07:30:54;12.30;74.50
39931;DHT22;26635;-35.248;149.138;2023-08-08T07:33:25;12.20;74.90
39931;DHT22;26635;-35.248;149.138;2023-08-08T07:35:56;12.10;75.30
39931;DHT22;26635;-35.248;149.138;2023-08-08T07:38:28;12.00;75.90
39931;DHT22;26635;-35.248;149.138;2023-08-08T07:40:58;11.90;75.90
39931;DHT22;26635;-35.248;149.138;2023-08-08T07:43:30;11.80;76.00
39931;DHT22;26635;-35.248;149.138;2023-08-08T07:46:01;11.70;76.30
39931;DHT22;26635;-35.248;149.138;2023-08-08T07:48:32;11.60;76.80
39931;DHT22;26635;-35.248;149.138;2023-08-08T07:51:03;11.50;77.60
39931;DHT22;26635;-35.248;149.138;2023-08-08T07:53:33;11.40;77.90
39931;DHT22;26635;-35.248;149.138;2023-08-08T07:56:04;11.30;78.10
39931;DHT22;26635;-35.248;149.138;2023-08-08T07:58:37;11.20;78.00
39931;DHT22;26635;-35.248;149.138;2023-08-08T08:01:07;11.10;78.40
39931;DHT22;26635;-35.248;149.138;2023-08-08T08:03:39;11.00;79.00
39931;DHT22;26635;-35.248;149.138;2023-08-08T08:06:10;10.90;79.20
39931;DHT22;26635;-35.248;149.138;2023-08-08T08:08:42;10.80;79.30
39931;DHT22;26635;-35.248;149.138;2023-08-08T08:11:15;10.80;79.50
39931;DHT22;26635;-35.248;149.138;2023-08-08T08:13:47;10.70;81.10
39931;DHT22;26635;-35.248;149.138;2023-08-08T08:16:19;10.60;80.60
39931;DHT22;26635;-35.248;149.138;2023-08-08T08:18:53;10.50;80.90
39931;DHT22;26635;-35.248;149.138;2023-08-08T08:21:24;10.40;81.70
39931;DHT22;26635;-35.248;149.138;2023-08-08T08:23:54;10.40;81.20
39931;DHT22;26635;-35.248;149.138;2023-08-08T08:26:25;10.30;81.40
39931;DHT22;26635;-35.248;149.138;2023-08-08T08:28:57;10.20;81.80
39931;DHT22;26635;-35.248;149.138;2023-08-08T08:31:30;10.20;82.10
39931;DHT22;26635;-35.248;149.138;2023-08-08T08:34:01;10.10;82.10
39931;DHT22;26635;-35.248;149.138;2023-08-08T08:36:32;10.00;83.40
39931;DHT22;26635;-35.248;149.138;2023-08-08T08:39:03;9.90;83.10
39931;DHT22;26635;-35.248;149.138;2023-08-08T08:41:36;9.80;83.90
39931;DHT22;26635;-35.248;149.138;2023-08-08T08:44:08;9.80;83.90
39931;DHT22;26635;-35.248;149.138;2023-08-08T08:46:39;9.70;84.20
39931;DHT22;26635;-35.248;149.138;2023-08-08T08:49:11;9.60;84.30
39931;DHT22;26635;-35.248;149.138;2023-08-08T08:51:42;9.50;84.40
39931;DHT22;26635;-35.248;149.138;2023-08-08T08:54:13;9.40;85.30
39931;DHT22;26635;-35.248;149.138;2023-08-08T08:56:46;9.40;85.10
39931;DHT22;26635;-35.248;149.138;2023-08-08T08:59:17;9.30;86.30
39931;DHT22;26635;-35.248;149.138;2023-08-08T09:01:49;9.20;85.70
39931;DHT22;26635;-35.248;149.138;2023-08-08T09:04:23;9.10;86.20
39931;DHT22;26635;-35.248;149.138;2023-08-08T09:06:54;9.00;86.90
39931;DHT22;26635;-35.248;149.138;2023-08-08T09:09:25;9.00;86.70
39931;DHT22;26635;-35.248;149.138;2023-08-08T09:11:55;8.90;86.70
39931;DHT22;26635;-35.248;149.138;2023-08-08T09:14:28;8.80;87.40
39931;DHT22;26635;-35.248;149.138;2023-08-08T09:16:58;8.80;87.10
39931;DHT22;26635;-35.248;149.138;2023-08-08T09:19:29;8.70;86.80
39931;DHT22;26635;-35.248;149.138;2023-08-08T09:22:00;8.70;87.20
39931;DHT22;26635;-35.248;149.138;2023-08-08T09:24:31;8.60;87.30
39931;DHT22;26635;-35.248;149.138;2023-08-08T09:27:02;8.50;87.20
39931;DHT22;26635;-35.248;149.138;2023-08-08T09:29:36;8.50;87.40
39931;DHT22;26635;-35.248;149.138;2023-08-08T09:32:09;8.40;88.40
39931;DHT22;26635;-35.248;149.138;2023-08-08T09:34:42;8.30;88.20
39931;DHT22;26635;-35.248;149.138;2023-08-08T09:37:15;8.20;88.80
39931;DHT22;26635;-35.248;149.138;2023-08-08T09:39:55;8.20;88.00
39931;DHT22;26635;-35.248;149.138;2023-08-08T09:42:29;8.10;88.30
39931;DHT22;26635;-35.248;149.138;2023-08-08T09:45:00;8.00;88.50
39931;DHT22;26635;-35.248;149.138;2023-08-08T09:47:34;8.00;88.00
39931;DHT22;26635;-35.248;149.138;2023-08-08T09:50:08;7.90;88.20
39931;DHT22;26635;-35.248;149.138;2023-08-08T09:52:39;7.90;88.60
39931;DHT22;26635;-35.248;149.138;2023-08-08T09:55:12;7.80;88.50
39931;DHT22;26635;-35.248;149.138;2023-08-08T09:57:43;7.80;88.50
39931;DHT22;26635;-35.248;149.138;2023-08-08T10:00:15;7.80;88.00
39931;DHT22;26635;-35.248;149.138;2023-08-08T10:02:47;7.70;88.10
39931;DHT22;26635;-35.248;149.138;2023-08-08T10:05:19;7.60;88.80
39931;DHT22;26635;-35.248;149.138;2023-08-08T10:07:54;7.60;88.60
39931;DHT22;26635;-35.248;149.138;2023-08-08T10:10:27;7.60;88.40
39931;DHT22;26635;-35.248;149.138;2023-08-08T10:12:59;7.50;89.30
39931;DHT22;26635;-35.248;149.138;2023-08-08T10:15:33;7.40;89.80
39931;DHT22;26635;-35.248;149.138;2023-08-08T10:18:08;7.30;90.00
39931;DHT22;26635;-35.248;149.138;2023-08-08T10:20:43;7.30;89.70
39931;DHT22;26635;-35.248;149.138;2023-08-08T10:23:19;7.20;89.80
39931;DHT22;26635;-35.248;149.138;2023-08-08T10:25:53;7.20;90.00
39931;DHT22;26635;-35.248;149.138;2023-08-08T10:28:26;7.20;89.40
39931;DHT22;26635;-35.248;149.138;2023-08-08T10:30:59;7.10;90.10
39931;DHT22;26635;-35.248;149.138;2023-08-08T10:33:42;7.10;90.10
39931;DHT22;26635;-35.248;149.138;2023-08-08T10:36:15;7.10;90.90
39931;DHT22;26635;-35.248;149.138;2023-08-08T10:38:50;7.00;89.60
39931;DHT22;26635;-35.248;149.138;2023-08-08T10:41:22;7.00;90.60
39931;DHT22;26635;-35.248;149.138;2023-08-08T10:43:58;7.00;90.70
39931;DHT22;26635;-35.248;149.138;2023-08-08T10:46:33;6.90;90.50
39931;DHT22;26635;-35.248;149.138;2023-08-08T10:49:06;6.80;90.20
39931;DHT22;26635;-35.248;149.138;2023-08-08T10:51:41;6.80;90.20
39931;DHT22;26635;-35.248;149.138;2023-08-08T10:56:53;6.80;91.10
39931;DHT22;26635;-35.248;149.138;2023-08-08T10:59:36;6.80;90.20
39931;DHT22;26635;-35.248;149.138;2023-08-08T11:02:10;6.70;90.20
39931;DHT22;26635;-35.248;149.138;2023-08-08T11:04:42;6.70;90.80
39931;DHT22;26635;-35.248;149.138;2023-08-08T11:07:15;6.60;90.50
39931;DHT22;26635;-35.248;149.138;2023-08-08T11:09:45;6.50;90.80
39931;DHT22;26635;-35.248;149.138;2023-08-08T11:12:37;6.40;90.70
39931;DHT22;26635;-35.248;149.138;2023-08-08T11:15:27;6.40;90.70
39931;DHT22;26635;-35.248;149.138;2023-08-08T11:18:01;6.40;92.10
39931;DHT22;26635;-35.248;149.138;2023-08-08T11:20:34;6.40;90.90
39931;DHT22;26635;-35.248;149.138;2023-08-08T11:23:06;6.40;91.00
39931;DHT22;26635;-35.248;149.138;2023-08-08T11:25:42;6.30;90.50
39931;DHT22;26635;-35.248;149.138;2023-08-08T11:28:34;6.30;90.60
39931;DHT22;26635;-35.248;149.138;2023-08-08T11:31:07;6.30;91.50
39931;DHT22;26635;-35.248;149.138;2023-08-08T11:33:39;6.20;90.80
39931;DHT22;26635;-35.248;149.138;2023-08-08T11:36:10;6.10;91.00
39931;DHT22;26635;-35.248;149.138;2023-08-08T11:38:44;6.10;90.80
39931;DHT22;26635;-35.248;149.138;2023-08-08T11:41:20;6.00;91.20
39931;DHT22;26635;-35.248;149.138;2023-08-08T11:43:51;6.00;91.00
39931;DHT22;26635;-35.248;149.138;2023-08-08T11:46:26;5.90;91.20
39931;DHT22;26635;-35.248;149.138;2023-08-08T11:49:05;6.00;90.60
39931;DHT22;26635;-35.248;149.138;2023-08-08T11:51:37;6.00;90.90
39931;DHT22;26635;-35.248;149.138;2023-08-08T11:54:08;6.00;90.70
39931;DHT22;26635;-35.248;149.138;2023-08-08T11:56:39;5.90;91.10
39931;DHT22;26635;-35.248;149.138;2023-08-08T11:59:10;5.90;90.80
39931;DHT22;26635;-35.248;149.138;2023-08-08T12:01:42;5.90;90.80
39931;DHT22;26635;-35.248;149.138;2023-08-08T12:04:14;5.90;91.00
39931;DHT22;26635;-35.248;149.138;2023-08-08T12:06:45;5.80;91.60
39931;DHT22;26635;-35.248;149.138;2023-08-08T12:09:18;5.80;92.00
39931;DHT22;26635;-35.248;149.138;2023-08-08T12:11:51;5.80;91.00
39931;DHT22;26635;-35.248;149.138;2023-08-08T12:14:24;5.80;91.10
39931;DHT22;26635;-35.248;149.138;2023-08-08T12:16:55;5.70;91.30
39931;DHT22;26635;-35.248;149.138;2023-08-08T12:19:29;5.70;91.60
39931;DHT22;26635;-35.248;149.138;2023-08-08T12:22:01;5.60;92.10
39931;DHT22;26635;-35.248;149.138;2023-08-08T12:24:32;5.60;91.20
39931;DHT22;26635;-35.248;149.138;2023-08-08T12:27:04;5.50;92.80
39931;DHT22;26635;-35.248;149.138;2023-08-08T12:29:37;5.50;91.70
39931;DHT22;26635;-35.248;149.138;2023-08-08T12:32:08;5.40;91.50
39931;DHT22;26635;-35.248;149.138;2023-08-08T12:34:40;5.40;91.40
39931;DHT22;26635;-35.248;149.138;2023-08-08T12:37:11;5.40;91.80
39931;DHT22;26635;-35.248;149.138;2023-08-08T12:39:42;5.40;92.00
39931;DHT22;26635;-35.248;149.138;2023-08-08T12:42:15;5.30;91.50
39931;DHT22;26635;-35.248;149.138;2023-08-08T12:44:46;5.40;91.70
39931;DHT22;26635;-35.248;149.138;2023-08-08T12:47:20;5.40;91.40
39931;DHT22;26635;-35.248;149.138;2023-08-08T12:49:53;5.40;91.80
39931;DHT22;26635;-35.248;149.138;2023-08-08T12:52:24;5.30;92.20
39931;DHT22;26635;-35.248;149.138;2023-08-08T12:54:57;5.30;92.20
39931;DHT22;26635;-35.248;149.138;2023-08-08T12:57:29;5.30;91.80
39931;DHT22;26635;-35.248;149.138;2023-08-08T13:00:09;5.20;91.90
39931;DHT22;26635;-35.248;149.138;2023-08-08T13:02:40;5.20;91.80
39931;DHT22;26635;-35.248;149.138;2023-08-08T13:05:12;5.20;91.80
39931;DHT22;26635;-35.248;149.138;2023-08-08T13:07:42;5.20;92.30
39931;DHT22;26635;-35.248;149.138;2023-08-08T13:10:13;5.20;91.90
39931;DHT22;26635;-35.248;149.138;2023-08-08T13:12:44;5.20;92.60
39931;DHT22;26635;-35.248;149.138;2023-08-08T13:15:15;5.20;91.80
39931;DHT22;26635;-35.248;149.138;2023-08-08T13:17:45;5.20;92.50
39931;DHT22;26635;-35.248;149.138;2023-08-08T13:20:16;5.20;91.80
39931;DHT22;26635;-35.248;149.138;2023-08-08T13:22:47;5.20;92.30
39931;DHT22;26635;-35.248;149.138;2023-08-08T13:25:18;5.20;92.00
39931;DHT22;26635;-35.248;149.138;2023-08-08T13:27:52;5.20;92.10
39931;DHT22;26635;-35.248;149.138;2023-08-08T13:30:25;5.20;92.30
39931;DHT22;26635;-35.248;149.138;2023-08-08T13:32:56;5.20;92.40
39931;DHT22;26635;-35.248;149.138;2023-08-08T13:35:29;5.10;91.90
39931;DHT22;26635;-35.248;149.138;2023-08-08T13:38:01;5.20;92.50
39931;DHT22;26635;-35.248;149.138;2023-08-08T13:40:32;5.20;92.00
39931;DHT22;26635;-35.248;149.138;2023-08-08T13:43:02;5.20;92.70
39931;DHT22;26635;-35.248;149.138;2023-08-08T13:45:33;5.10;91.90
39931;DHT22;26635;-35.248;149.138;2023-08-08T13:48:06;5.10;92.00
39931;DHT22;26635;-35.248;149.138;2023-08-08T13:50:38;5.10;92.40
39931;DHT22;26635;-35.248;149.138;2023-08-08T13:53:09;5.00;92.40
39931;DHT22;26635;-35.248;149.138;2023-08-08T13:55:39;5.00;93.50
39931;DHT22;26635;-35.248;149.138;2023-08-08T13:58:10;4.90;92.70
39931;DHT22;26635;-35.248;149.138;2023-08-08T14:00:41;4.90;92.50
39931;DHT22;26635;-35.248;149.138;2023-08-08T14:03:13;4.90;92.80
39931;DHT22;26635;-35.248;149.138;2023-08-08T14:05:46;4.90;92.60
39931;DHT22;26635;-35.248;149.138;2023-08-08T14:08:18;4.80;92.10
39931;DHT22;26635;-35.248;149.138;2023-08-08T14:11:01;4.80;92.60
39931;DHT22;26635;-35.248;149.138;2023-08-08T14:13:32;4.80;92.60
39931;DHT22;26635;-35.248;149.138;2023-08-08T14:16:04;4.80;92.70
39931;DHT22;26635;-35.248;149.138;2023-08-08T14:18:35;4.80;93.40
39931;DHT22;26635;-35.248;149.138;2023-08-08T14:21:05;4.80;93.10
39931;DHT22;26635;-35.248;149.138;2023-08-08T14:23:36;4.90;93.50
39931;DHT22;26635;-35.248;149.138;2023-08-08T14:26:07;4.90;93.30
39931;DHT22;26635;-35.248;149.138;2023-08-08T14:28:38;4.90;92.90
39931;DHT22;26635;-35.248;149.138;2023-08-08T14:31:11;4.90;93.60
39931;DHT22;26635;-35.248;149.138;2023-08-08T14:33:41;5.00;94.00
39931;DHT22;26635;-35.248;149.138;2023-08-08T14:36:12;5.10;93.60
39931;DHT22;26635;-35.248;149.138;2023-08-08T14:38:44;5.10;93.10
39931;DHT22;26635;-35.248;149.138;2023-08-08T14:41:20;5.20;93.70
39931;DHT22;26635;-35.248;149.138;2023-08-08T14:43:55;5.20;94.30
39931;DHT22;26635;-35.248;149.138;2023-08-08T14:46:29;5.30;93.60
39931;DHT22;26635;-35.248;149.138;2023-08-08T14:49:04;5.20;93.30
39931;DHT22;26635;-35.248;149.138;2023-08-08T14:51:35;5.30;93.10
39931;DHT22;26635;-35.248;149.138;2023-08-08T14:54:06;5.40;93.70
39931;DHT22;26635;-35.248;149.138;2023-08-08T14:56:38;5.40;93.90
39931;DHT22;26635;-35.248;149.138;2023-08-08T14:59:10;5.40;93.30
39931;DHT22;26635;-35.248;149.138;2023-08-08T15:01:41;5.50;93.50
39931;DHT22;26635;-35.248;149.138;2023-08-08T15:04:12;5.50;93.20
39931;DHT22;26635;-35.248;149.138;2023-08-08T15:06:44;5.60;93.30
39931;DHT22;26635;-35.248;149.138;2023-08-08T15:09:15;5.60;93.20
39931;DHT22;26635;-35.248;149.138;2023-08-08T15:11:48;5.60;93.20
39931;DHT22;26635;-35.248;149.138;2023-08-08T15:14:20;5.60;93.20
39931;DHT22;26635;-35.248;149.138;2023-08-08T15:16:53;5.70;93.40
39931;DHT22;26635;-35.248;149.138;2023-08-08T15:19:26;5.70;94.20
39931;DHT22;26635;-35.248;149.138;2023-08-08T15:21:58;5.70;94.30
39931;DHT22;26635;-35.248;149.138;2023-08-08T15:24:33;5.70;93.50
39931;DHT22;26635;-35.248;149.138;2023-08-08T15:27:06;5.70;93.30